Time;durP1;ratioP1;P1;durP2;ratioP2;P2;SDS_P1;SDS_P2;PMS_P1;PMS_P2;Temp;Humidity;BMP_temperature;BMP_pressure;BME280_temperature;BME280_humidity;BME280_pressure;Samples;Min_cycle;Max_cycle;Signal;HPM_P1;HPM_P2
2023/05/10 00:02:24;;;;;;;6.60;4.50;;;;;;;-128.00;-1.00;-1.00;97730;296;1003080;-29
2023/05/10 00:04:50;;;;;;;13.60;5.10;;;;;;;-128.00;-1.00;-1.00;97830;286;1004255;-32
2023/05/10 00:07:17;;;;;;;7.40;4.40;;;;;;;-128.00;-1.00;-1.00;97972;296;1004826;-35
2023/05/10 00:09:43;;;;;;;6.20;3.60;;;;;;;-128.00;-1.00;-1.00;97847;296;1003012;-32
2023/05/10 00:12:09;;;;;;;8.60;3.50;;;;;;;-128.00;-1.00;-1.00;97925;296;1003341;-32
2023/05/10 00:14:35;;;;;;;10.20;4.80;;;;;;;-128.00;-1.00;-1.00;97865;296;1003177;-32
2023/05/10 00:17:00;;;;;;;8.00;4.50;;;;;;;-128.00;-1.00;-1.00;97725;296;1003474;-31
2023/05/10 00:19:26;;;;;;;8.80;4.60;;;;;;;-128.00;-1.00;-1.00;97764;296;1004089;-29
2023/05/10 00:21:51;;;;;;;5.90;3.50;;;;;;;-128.00;-1.00;-1.00;97807;296;1003876;-32
2023/05/10 00:24:17;;;;;;;8.80;3.80;;;;;;;-128.00;-1.00;-1.00;97881;296;1003782;-28
2023/05/10 00:26:43;;;;;;;13.20;4.90;;;;;;;-128.00;-1.00;-1.00;97827;296;1003014;-32
2023/05/10 00:29:08;;;;;;;10.70;5.60;;;;;;;-128.00;-1.00;-1.00;97833;296;1004796;-34
2023/05/10 00:31:34;;;;;;;6.80;4.70;;;;;;;-128.00;-1.00;-1.00;97818;296;1004766;-34
2023/05/10 00:33:59;;;;;;;8.10;3.80;;;;;;;-128.00;-1.00;-1.00;97853;296;1003693;-34
2023/05/10 00:36:25;;;;;;;7.50;4.20;;;;;;;-128.00;-1.00;-1.00;97864;296;1003273;-28
2023/05/10 00:38:51;;;;;;;5.60;3.40;;;;;;;-128.00;-1.00;-1.00;97835;296;1004034;-29
2023/05/10 00:41:17;;;;;;;5.80;3.70;;;;;;;-128.00;-1.00;-1.00;97745;296;1004327;-32
2023/05/10 00:43:42;;;;;;;13.70;3.60;;;;;;;-128.00;-1.00;-1.00;97800;296;1004070;-28
2023/05/10 00:46:08;;;;;;;12.20;4.30;;;;;;;-128.00;-1.00;-1.00;97726;296;1003722;-29
2023/05/10 00:48:33;;;;;;;10.10;3.60;;;;;;;-128.00;-1.00;-1.00;97814;296;1004251;-29
2023/05/10 00:51:00;;;;;;;3.60;3.00;;;;;;;-128.00;-1.00;-1.00;97825;297;1004506;-29
2023/05/10 00:53:25;;;;;;;6.20;2.90;;;;;;;-128.00;-1.00;-1.00;97770;297;1003093;-33
2023/05/10 00:55:51;;;;;;;6.40;3.30;;;;;;;-128.00;-1.00;-1.00;97789;285;1003613;-28
2023/05/10 00:58:17;;;;;;;4.60;1.70;;;;;;;-128.00;-1.00;-1.00;97860;297;1002911;-30
2023/05/10 01:00:46;;;;;;;5.20;3.10;;;;;;;-128.00;-1.00;-1.00;97878;297;1003292;-34
2023/05/10 01:03:12;;;;;;;4.20;3.30;;;;;;;-128.00;-1.00;-1.00;97950;297;1004839;-29
2023/05/10 01:05:38;;;;;;;5.60;3.40;;;;;;;-128.00;-1.00;-1.00;97887;297;1003409;-33
2023/05/10 01:08:04;;;;;;;7.80;3.60;;;;;;;-128.00;-1.00;-1.00;97921;297;1002897;-28
2023/05/10 01:10:30;;;;;;;5.50;3.20;;;;;;;-128.00;-1.00;-1.00;97799;297;1004236;-32
2023/05/10 01:12:56;;;;;;;14.40;3.70;;;;;;;-128.00;-1.00;-1.00;97891;297;1004144;-30
2023/05/10 01:15:22;;;;;;;7.90;3.30;;;;;;;-128.00;-1.00;-1.00;97757;297;1003123;-33
2023/05/10 01:17:48;;;;;;;5.10;2.70;;;;;;;-128.00;-1.00;-1.00;97843;297;1003341;-29
2023/05/10 01:20:13;;;;;;;6.70;3.70;;;;;;;-128.00;-1.00;-1.00;97902;297;1003090;-33
2023/05/10 01:23:11;;;;;;;5.90;3.60;;;;;;;-128.00;-1.00;-1.00;97867;297;1004552;-32
2023/05/10 01:25:50;;;;;;;9.40;3.50;;;;;;;-128.00;-1.00;-1.00;97797;297;1003532;-33
2023/05/10 01:28:35;;;;;;;4.60;2.80;;;;;;;-128.00;-1.00;-1.00;97890;297;1003285;-32
2023/05/10 01:31:22;;;;;;;8.60;3.40;;;;;;;-128.00;-1.00;-1.00;97885;297;1003162;-32
2023/05/10 01:34:12;;;;;;;6.50;3.30;;;;;;;-128.00;-1.00;-1.00;97844;285;1003069;-28
2023/05/10 01:36:48;;;;;;;5.00;3.40;;;;;;;-128.00;-1.00;-1.00;97865;297;1003734;-32
2023/05/10 01:39:27;;;;;;;4.70;3.40;;;;;;;-128.00;-1.00;-1.00;97843;297;1003222;-28
2023/05/10 01:42:09;;;;;;;5.30;3.00;;;;;;;-128.00;-1.00;-1.00;97821;297;1002982;-33
2023/05/10 01:44:59;;;;;;;3.70;2.70;;;;;;;-128.00;-1.00;-1.00;97889;297;1003598;-28
2023/05/10 01:47:34;;;;;;;4.90;3.10;;;;;;;-128.00;-1.00;-1.00;97832;297;1003962;-32
2023/05/10 01:50:02;;;;;;;4.50;3.30;;;;;;;-128.00;-1.00;-1.00;97879;297;1004702;-32
2023/05/10 01:52:33;;;;;;;20.40;4.40;;;;;;;-128.00;-1.00;-1.00;97882;297;1004992;-28
2023/05/10 01:55:04;;;;;;;5.10;4.00;;;;;;;-128.00;-1.00;-1.00;97804;297;1003104;-32
2023/05/10 01:57:34;;;;;;;5.80;4.70;;;;;;;-128.00;-1.00;-1.00;97714;297;1004717;-30
2023/05/10 02:00:01;;;;;;;5.40;3.00;;;;;;;-128.00;-1.00;-1.00;97782;297;1003116;-32
2023/05/10 02:02:27;;;;;;;4.20;2.70;;;;;;;-128.00;-1.00;-1.00;97843;297;1003225;-32
2023/05/10 02:04:55;;;;;;;10.00;6.50;;;;;;;-128.00;-1.00;-1.00;97839;297;1003295;-27
2023/05/10 02:07:21;;;;;;;6.90;5.50;;;;;;;-128.00;-1.00;-1.00;97848;297;1004658;-26
2023/05/10 02:09:47;;;;;;;7.60;4.80;;;;;;;-128.00;-1.00;-1.00;97931;297;1003316;-29
2023/05/10 02:12:13;;;;;;;6.40;3.80;;;;;;;-128.00;-1.00;-1.00;97829;297;1002576;-28
2023/05/10 02:14:38;;;;;;;11.50;5.10;;;;;;;-128.00;-1.00;-1.00;97759;297;1003260;-28
2023/05/10 02:17:05;;;;;;;9.80;4.40;;;;;;;-128.00;-1.00;-1.00;97794;297;1003664;-32
2023/05/10 02:19:32;;;;;;;11.90;7.40;;;;;;;-128.00;-1.00;-1.00;97859;297;1003068;-29
2023/05/10 02:21:58;;;;;;;11.20;7.00;;;;;;;-128.00;-1.00;-1.00;97779;297;1003641;-28
2023/05/10 02:24:23;;;;;;;12.70;3.60;;;;;;;-128.00;-1.00;-1.00;97801;297;1004271;-28
2023/05/10 02:26:49;;;;;;;6.60;4.70;;;;;;;-128.00;-1.00;-1.00;97862;297;1003118;-28
2023/05/10 02:29:15;;;;;;;10.00;4.90;;;;;;;-128.00;-1.00;-1.00;97824;297;1003084;-32
2023/05/10 02:31:43;;;;;;;9.90;7.10;;;;;;;-128.00;-1.00;-1.00;97783;297;1002841;-28
2023/05/10 02:34:08;;;;;;;7.90;5.40;;;;;;;-128.00;-1.00;-1.00;97844;297;1004488;-32
2023/05/10 02:36:34;;;;;;;57.50;33.10;;;;;;;-128.00;-1.00;-1.00;97813;297;1003211;-33
2023/05/10 02:39:00;;;;;;;78.00;55.10;;;;;;;-128.00;-1.00;-1.00;97797;297;1002981;-32
2023/05/10 02:41:26;;;;;;;17.70;11.20;;;;;;;-128.00;-1.00;-1.00;97839;297;1003239;-27
2023/05/10 02:43:51;;;;;;;38.20;32.80;;;;;;;-128.00;-1.00;-1.00;97803;297;1003046;-32
2023/05/10 02:46:18;;;;;;;37.10;27.20;;;;;;;-128.00;-1.00;-1.00;97707;297;1005563;-27
2023/05/10 02:48:43;;;;;;;33.40;21.20;;;;;;;-128.00;-1.00;-1.00;97773;297;1003729;-33
2023/05/10 02:51:09;;;;;;;23.30;16.50;;;;;;;-128.00;-1.00;-1.00;97742;297;1003241;-29
2023/05/10 02:53:36;;;;;;;23.70;19.90;;;;;;;-128.00;-1.00;-1.00;97763;297;1003709;-30
2023/05/10 02:56:06;;;;;;;30.30;17.60;;;;;;;-128.00;-1.00;-1.00;97832;297;1003977;-29
2023/05/10 02:58:32;;;;;;;36.00;19.40;;;;;;;-128.00;-1.00;-1.00;97852;297;1003140;-28
2023/05/10 03:00:59;;;;;;;54.10;32.50;;;;;;;-128.00;-1.00;-1.00;97800;297;1003352;-28
2023/05/10 03:03:25;;;;;;;46.30;23.90;;;;;;;-128.00;-1.00;-1.00;97836;297;1003894;-28
2023/05/10 03:05:53;;;;;;;60.70;39.00;;;;;;;-128.00;-1.00;-1.00;97833;296;1005275;-28
2023/05/10 03:08:19;;;;;;;33.70;15.80;;;;;;;-128.00;-1.00;-1.00;97820;297;1004038;-32
2023/05/10 03:11:08;;;;;;;28.90;19.60;;;;;;;-128.00;-1.00;-1.00;97849;297;1004136;-33
2023/05/10 03:13:58;;;;;;;16.50;9.20;;;;;;;-128.00;-1.00;-1.00;97830;297;1002680;-28
2023/05/10 03:16:35;;;;;;;32.30;22.80;;;;;;;-128.00;-1.00;-1.00;97733;297;1005432;-33
2023/05/10 03:19:06;;;;;;;27.60;18.10;;;;;;;-128.00;-1.00;-1.00;97727;287;1003466;-28
2023/05/10 03:21:32;;;;;;;5.40;4.10;;;;;;;-128.00;-1.00;-1.00;97878;287;1004891;-28
2023/05/10 03:24:00;;;;;;;13.80;5.40;;;;;;;-128.00;-1.00;-1.00;97799;297;1003052;-32
2023/05/10 03:26:26;;;;;;;6.50;4.20;;;;;;;-128.00;-1.00;-1.00;97837;297;1003937;-28
2023/05/10 03:28:52;;;;;;;9.50;4.60;;;;;;;-128.00;-1.00;-1.00;97839;297;1003837;-27
2023/05/10 03:31:18;;;;;;;9.20;4.50;;;;;;;-128.00;-1.00;-1.00;97799;297;1003413;-28
2023/05/10 03:33:48;;;;;;;5.50;3.70;;;;;;;-128.00;-1.00;-1.00;97921;297;1003044;-33
2023/05/10 03:36:14;;;;;;;7.10;4.20;;;;;;;-128.00;-1.00;-1.00;97942;297;1003603;-29
2023/05/10 03:38:40;;;;;;;9.00;4.00;;;;;;;-128.00;-1.00;-1.00;97798;297;1005256;-34
2023/05/10 03:41:06;;;;;;;5.10;3.10;;;;;;;-128.00;-1.00;-1.00;97882;297;1005182;-29
2023/05/10 03:43:31;;;;;;;9.50;3.70;;;;;;;-128.00;-1.00;-1.00;97839;297;1004207;-32
2023/05/10 03:45:57;;;;;;;4.30;3.40;;;;;;;-128.00;-1.00;-1.00;97708;299;1003942;-32
2023/05/10 03:48:22;;;;;;;7.60;3.50;;;;;;;-128.00;-1.00;-1.00;97882;297;1003142;-32
2023/05/10 03:50:49;;;;;;;6.00;4.50;;;;;;;-128.00;-1.00;-1.00;97810;297;1005568;-29
2023/05/10 03:53:15;;;;;;;8.50;4.40;;;;;;;-128.00;-1.00;-1.00;97723;297;1003545;-31
2023/05/10 03:55:41;;;;;;;5.10;3.20;;;;;;;-128.00;-1.00;-1.00;97796;297;1003045;-32
2023/05/10 03:58:06;;;;;;;7.00;4.90;;;;;;;-128.00;-1.00;-1.00;97869;285;1003703;-30
2023/05/10 04:00:32;;;;;;;4.20;3.10;;;;;;;-128.00;-1.00;-1.00;97857;297;1003880;-29
2023/05/10 04:02:58;;;;;;;3.60;2.80;;;;;;;-128.00;-1.00;-1.00;97856;297;1003483;-34
2023/05/10 04:05:23;;;;;;;5.40;2.80;;;;;;;-128.00;-1.00;-1.00;97779;297;1003367;-28
2023/05/10 04:07:50;;;;;;;9.70;3.50;;;;;;;-128.00;-1.00;-1.00;97872;297;1003284;-33
2023/05/10 04:10:17;;;;;;;6.20;3.20;;;;;;;-128.00;-1.00;-1.00;97863;297;1003962;-28
2023/05/10 04:12:43;;;;;;;4.90;3.30;;;;;;;-128.00;-1.00;-1.00;97787;297;1004668;-32
2023/05/10 04:15:09;;;;;;;5.10;3.40;;;;;;;-128.00;-1.00;-1.00;97982;297;1003670;-33
2023/05/10 04:17:35;;;;;;;3.90;2.30;;;;;;;-128.00;-1.00;-1.00;97824;297;1003089;-33
2023/05/10 04:20:00;;;;;;;5.20;2.50;;;;;;;-128.00;-1.00;-1.00;97858;297;1004328;-32
2023/05/10 04:22:27;;;;;;;4.20;3.00;;;;;;;-128.00;-1.00;-1.00;97834;297;1003191;-28
2023/05/10 04:24:53;;;;;;;10.20;3.20;;;;;;;-128.00;-1.00;-1.00;97914;297;1005287;-34
2023/05/10 04:27:18;;;;;;;5.00;4.10;;;;;;;-128.00;-1.00;-1.00;97777;297;1003194;-28
2023/05/10 04:29:44;;;;;;;4.40;3.30;;;;;;;-128.00;-1.00;-1.00;97760;297;1003167;-30
2023/05/10 04:32:10;;;;;;;5.40;3.30;;;;;;;-128.00;-1.00;-1.00;97775;297;1003546;-33
2023/05/10 04:34:36;;;;;;;6.40;4.10;;;;;;;-128.00;-1.00;-1.00;97795;297;1003962;-28
2023/05/10 04:37:02;;;;;;;7.70;3.20;;;;;;;-128.00;-1.00;-1.00;97768;297;1004647;-33
2023/05/10 04:39:27;;;;;;;6.10;4.00;;;;;;;-128.00;-1.00;-1.00;97855;297;1003048;-29
2023/05/10 05:18:37;;;;;;;4.40;2.30;;;;;;;-100.48;13.62;19892.87;98245;287;1543618;-35
2023/05/10 05:21:02;;;;;;;6.00;2.70;;;;;;;-128.00;-1.00;-1.00;97446;295;1003127;-29
2023/05/10 05:23:28;;;;;;;3.80;1.90;;;;;;;-128.00;-1.00;-1.00;97889;295;1003899;-29
2023/05/10 05:25:53;;;;;;;3.20;2.40;;;;;;;-128.00;-1.00;-1.00;97854;295;1003354;-33
2023/05/10 05:28:20;;;;;;;6.10;2.10;;;;;;;-128.00;-1.00;-1.00;97855;295;1003514;-34
2023/05/10 05:30:46;;;;;;;4.80;2.10;;;;;;;-128.00;-1.00;-1.00;97866;295;1004485;-29
2023/05/10 05:33:15;;;;;;;4.40;2.60;;;;;;;-128.00;-1.00;-1.00;97828;295;1004228;-29
2023/05/10 05:35:42;;;;;;;4.40;1.80;;;;;;;-128.00;-1.00;-1.00;97902;295;1002669;-29
2023/05/10 05:38:08;;;;;;;9.10;2.10;;;;;;;-128.00;-1.00;-1.00;97926;295;1004811;-29
2023/05/10 05:40:34;;;;;;;3.10;2.40;;;;;;;-128.00;-1.00;-1.00;97810;295;1004199;-34
2023/05/10 05:42:59;;;;;;;4.90;1.80;;;;;;;-128.00;-1.00;-1.00;98048;295;1004092;-36
2023/05/10 05:45:25;;;;;;;5.30;2.90;;;;;;;-128.00;-1.00;-1.00;97908;295;1003226;-31
2023/05/10 05:47:50;;;;;;;3.00;2.10;;;;;;;-128.00;-1.00;-1.00;97816;295;1003217;-35
2023/05/10 05:50:16;;;;;;;5.20;2.20;;;;;;;-128.00;-1.00;-1.00;97838;295;1003510;-34
2023/05/10 05:52:42;;;;;;;3.10;2.10;;;;;;;-128.00;-1.00;-1.00;97817;295;1004444;-34
2023/05/10 05:55:08;;;;;;;3.90;2.10;;;;;;;-128.00;-1.00;-1.00;97837;294;1003597;-34
2023/05/10 05:57:33;;;;;;;2.70;2.10;;;;;;;-128.00;-1.00;-1.00;97848;295;1004353;-35
2023/05/10 05:59:59;;;;;;;8.10;2.40;;;;;;;-128.00;-1.00;-1.00;97952;295;1003647;-30
2023/05/10 06:02:25;;;;;;;2.70;1.80;;;;;;;-128.00;-1.00;-1.00;97936;295;1003223;-34
2023/05/10 06:04:50;;;;;;;5.50;1.80;;;;;;;-128.00;-1.00;-1.00;97809;283;1003667;-34
2023/05/10 06:07:16;;;;;;;4.00;2.40;;;;;;;-128.00;-1.00;-1.00;97902;295;1003971;-30
2023/05/10 06:09:42;;;;;;;1.90;1.70;;;;;;;-128.00;-1.00;-1.00;97927;294;1003315;-34
2023/05/10 06:12:07;;;;;;;2.50;1.90;;;;;;;-128.00;-1.00;-1.00;97958;295;1004168;-33
2023/05/10 06:14:33;;;;;;;4.70;1.80;;;;;;;-128.00;-1.00;-1.00;98040;295;1003693;-34
2023/05/10 06:16:59;;;;;;;2.10;1.10;;;;;;;-128.00;-1.00;-1.00;97756;283;1003295;-30
2023/05/10 06:19:26;;;;;;;3.70;1.60;;;;;;;-128.00;-1.00;-1.00;97795;294;1003883;-30
2023/05/10 06:21:52;;;;;;;3.10;2.10;;;;;;;-128.00;-1.00;-1.00;97853;296;1003169;-30
2023/05/10 06:24:18;;;;;;;2.60;1.30;;;;;;;-128.00;-1.00;-1.00;97877;294;1003383;-32
2023/05/10 06:26:43;;;;;;;1.60;1.10;;;;;;;-128.00;-1.00;-1.00;97975;283;1003914;-35
2023/05/10 06:29:09;;;;;;;2.50;1.80;;;;;;;-128.00;-1.00;-1.00;97860;294;1003919;-30
2023/05/10 06:31:34;;;;;;;2.70;1.70;;;;;;;-128.00;-1.00;-1.00;97959;295;1004438;-35
2023/05/10 06:34:00;;;;;;;3.60;1.60;;;;;;;-128.00;-1.00;-1.00;97894;295;1003365;-35
2023/05/10 06:36:27;;;;;;;4.50;2.30;;;;;;;-128.00;-1.00;-1.00;97913;284;1003435;-32
2023/05/10 06:38:52;;;;;;;3.90;2.10;;;;;;;-128.00;-1.00;-1.00;97954;294;1003974;-30
2023/05/10 06:41:18;;;;;;;2.70;1.80;;;;;;;-128.00;-1.00;-1.00;97852;294;1004461;-34
2023/05/10 06:43:44;;;;;;;2.40;1.20;;;;;;;-128.00;-1.00;-1.00;97917;294;1002908;-34
2023/05/10 06:46:09;;;;;;;3.50;2.30;;;;;;;-128.00;-1.00;-1.00;97797;294;1003571;-30
2023/05/10 06:48:35;;;;;;;4.50;2.40;;;;;;;-128.00;-1.00;-1.00;97812;294;1003091;-31
2023/05/10 06:51:01;;;;;;;2.50;1.90;;;;;;;-128.00;-1.00;-1.00;97806;287;1003709;-30
2023/05/10 06:53:27;;;;;;;4.20;1.90;;;;;;;-128.00;-1.00;-1.00;97847;295;1002880;-29
2023/05/10 06:55:52;;;;;;;3.90;2.00;;;;;;;-128.00;-1.00;-1.00;97803;294;1003233;-34
2023/05/10 06:58:18;;;;;;;2.60;1.60;;;;;;;-128.00;-1.00;-1.00;97878;295;1004293;-31
2023/05/10 07:00:45;;;;;;;6.30;1.50;;;;;;;-128.00;-1.00;-1.00;97876;283;1003264;-30
2023/05/10 07:03:11;;;;;;;6.10;2.00;;;;;;;-128.00;-1.00;-1.00;97820;294;1003856;-35
2023/05/10 07:05:36;;;;;;;2.60;1.30;;;;;;;-128.00;-1.00;-1.00;97870;296;1004472;-29
2023/05/10 07:08:02;;;;;;;1.90;1.20;;;;;;;-128.00;-1.00;-1.00;97990;294;1003454;-30
2023/05/10 07:10:28;;;;;;;2.30;1.10;;;;;;;-128.00;-1.00;-1.00;97975;294;1004795;-36
2023/05/10 07:12:53;;;;;;;3.50;1.80;;;;;;;-128.00;-1.00;-1.00;97876;294;1003188;-34
2023/05/10 07:15:19;;;;;;;5.00;1.40;;;;;;;-128.00;-1.00;-1.00;97794;294;1003744;-36
2023/05/10 07:17:45;;;;;;;2.80;1.60;;;;;;;-128.00;-1.00;-1.00;97886;294;1003423;-33
2023/05/10 07:20:11;;;;;;;5.00;1.40;;;;;;;-128.00;-1.00;-1.00;97887;295;1003047;-36
2023/05/10 07:22:37;;;;;;;2.60;1.40;;;;;;;-128.00;-1.00;-1.00;97806;285;1002880;-30
2023/05/10 07:25:03;;;;;;;1.60;1.00;;;;;;;-128.00;-1.00;-1.00;98019;294;1003065;-34
2023/05/10 07:27:28;;;;;;;4.30;1.10;;;;;;;-128.00;-1.00;-1.00;97837;295;1003812;-33
2023/05/10 07:29:54;;;;;;;2.20;1.10;;;;;;;-128.00;-1.00;-1.00;97877;294;1003220;-30
2023/05/10 07:32:21;;;;;;;2.60;1.40;;;;;;;-128.00;-1.00;-1.00;97814;294;1002846;-35
2023/05/10 07:34:46;;;;;;;6.10;1.10;;;;;;;-128.00;-1.00;-1.00;97857;294;1003356;-34
2023/05/10 07:37:12;;;;;;;2.30;1.20;;;;;;;-128.00;-1.00;-1.00;97799;294;1003183;-34
2023/05/10 07:39:38;;;;;;;4.50;1.30;;;;;;;-128.00;-1.00;-1.00;97763;294;1003692;-31
2023/05/10 07:42:03;;;;;;;8.60;1.20;;;;;;;-128.00;-1.00;-1.00;97964;294;1002975;-35
2023/05/10 07:44:29;;;;;;;5.00;1.50;;;;;;;-128.00;-1.00;-1.00;97847;295;1003061;-34
2023/05/10 07:46:55;;;;;;;2.00;1.10;;;;;;;-128.00;-1.00;-1.00;97889;294;1003217;-35
2023/05/10 07:49:23;;;;;;;1.80;1.20;;;;;;;-128.00;-1.00;-1.00;97938;294;1002490;-32
2023/05/10 07:51:49;;;;;;;1.70;1.20;;;;;;;-128.00;-1.00;-1.00;97800;294;1004888;-37
2023/05/10 07:54:15;;;;;;;2.90;1.40;;;;;;;-128.00;-1.00;-1.00;97825;296;1002426;-35
2023/05/10 07:56:45;;;;;;;11.40;1.10;;;;;;;-128.00;-1.00;-1.00;97848;294;1005493;-30
2023/05/10 07:59:14;;;;;;;3.00;1.40;;;;;;;-128.00;-1.00;-1.00;97922;294;1002926;-31
2023/05/10 08:01:40;;;;;;;1.90;1.20;;;;;;;-128.00;-1.00;-1.00;97940;285;1002667;-30
2023/05/10 08:04:07;;;;;;;2.30;1.40;;;;;;;-128.00;-1.00;-1.00;97825;296;1003648;-35
2023/05/10 08:06:32;;;;;;;1.90;1.00;;;;;;;-128.00;-1.00;-1.00;97829;294;1003047;-31
2023/05/10 08:08:58;;;;;;;3.00;1.20;;;;;;;-128.00;-1.00;-1.00;97903;296;1004112;-31
2023/05/10 08:11:24;;;;;;;3.30;1.20;;;;;;;-128.00;-1.00;-1.00;97858;296;1003146;-31
2023/05/10 08:13:50;;;;;;;1.30;0.80;;;;;;;-128.00;-1.00;-1.00;98014;294;1004142;-34
2023/05/10 08:16:16;;;;;;;2.10;0.90;;;;;;;-128.00;-1.00;-1.00;97884;294;1003623;-31
2023/05/10 08:18:43;;;;;;;2.80;1.00;;;;;;;-128.00;-1.00;-1.00;97870;294;1003381;-30
2023/05/10 08:21:11;;;;;;;5.30;1.20;;;;;;;-128.00;-1.00;-1.00;97815;294;1002823;-32
2023/05/10 08:23:37;;;;;;;2.00;1.10;;;;;;;-128.00;-1.00;-1.00;97844;294;1003207;-31
2023/05/10 08:26:03;;;;;;;2.20;1.10;;;;;;;-128.00;-1.00;-1.00;97889;294;1003658;-31
2023/05/10 08:28:31;;;;;;;2.10;1.00;;;;;;;-128.00;-1.00;-1.00;97785;294;1002865;-34
2023/05/10 08:30:57;;;;;;;2.20;1.60;;;;;;;-128.00;-1.00;-1.00;97785;297;1003903;-30
2023/05/10 08:33:23;;;;;;;4.30;1.60;;;;;;;-128.00;-1.00;-1.00;97823;295;1003494;-34
2023/05/10 08:35:48;;;;;;;1.50;0.90;;;;;;;-128.00;-1.00;-1.00;97883;295;1002935;-34
2023/05/10 08:38:14;;;;;;;5.40;1.20;;;;;;;-128.00;-1.00;-1.00;97857;295;1002830;-30
2023/05/10 08:40:43;;;;;;;2.70;1.30;;;;;;;-128.00;-1.00;-1.00;97817;286;1002988;-34
2023/05/10 08:43:11;;;;;;;3.20;1.40;;;;;;;-128.00;-1.00;-1.00;97934;295;1003016;-30
2023/05/10 08:45:38;;;;;;;4.90;1.30;;;;;;;-128.00;-1.00;-1.00;97891;294;1002928;-34
2023/05/10 08:48:06;;;;;;;4.50;1.50;;;;;;;-128.00;-1.00;-1.00;97902;294;1004193;-34
2023/05/10 08:50:32;;;;;;;2.70;1.70;;;;;;;-128.00;-1.00;-1.00;97990;294;1003357;-34
2023/05/10 08:52:59;;;;;;;3.40;1.20;;;;;;;-128.00;-1.00;-1.00;97996;294;1003860;-35
2023/05/10 08:55:25;;;;;;;3.00;1.50;;;;;;;-128.00;-1.00;-1.00;97876;295;1004584;-30
2023/05/10 08:57:51;;;;;;;1.80;1.20;;;;;;;-128.00;-1.00;-1.00;97833;294;1003155;-31
2023/05/10 09:00:18;;;;;;;1.70;1.00;;;;;;;-128.00;-1.00;-1.00;97905;294;1003295;-31
2023/05/10 09:02:45;;;;;;;4.40;2.00;;;;;;;-128.00;-1.00;-1.00;97892;294;1004476;-35
2023/05/10 09:05:12;;;;;;;4.00;1.40;;;;;;;-128.00;-1.00;-1.00;97836;295;1003323;-30
2023/05/10 09:07:37;;;;;;;3.30;1.10;;;;;;;-128.00;-1.00;-1.00;97921;295;1003336;-31
2023/05/10 09:10:04;;;;;;;3.60;1.60;;;;;;;-128.00;-1.00;-1.00;97793;288;1003548;-35
2023/05/10 09:12:30;;;;;;;2.30;1.60;;;;;;;-128.00;-1.00;-1.00;97930;294;1002729;-31
2023/05/10 09:14:56;;;;;;;1.40;0.90;;;;;;;-128.00;-1.00;-1.00;97832;294;1003913;-31
2023/05/10 09:17:23;;;;;;;2.20;0.90;;;;;;;-128.00;-1.00;-1.00;97991;294;1003432;-35
2023/05/10 09:19:50;;;;;;;5.20;1.30;;;;;;;-128.00;-1.00;-1.00;97875;294;1003022;-34
2023/05/10 09:22:16;;;;;;;1.20;0.90;;;;;;;-128.00;-1.00;-1.00;97892;294;1003042;-30
2023/05/10 09:24:44;;;;;;;3.10;1.20;;;;;;;-128.00;-1.00;-1.00;97848;295;1003793;-30
2023/05/10 09:27:11;;;;;;;2.50;1.00;;;;;;;-128.00;-1.00;-1.00;97888;294;1002619;-29
2023/05/10 09:29:41;;;;;;;3.30;0.80;;;;;;;-128.00;-1.00;-1.00;97807;295;1004245;-30
2023/05/10 09:32:07;;;;;;;2.80;1.00;;;;;;;-128.00;-1.00;-1.00;97955;294;1003067;-31
2023/05/10 09:34:35;;;;;;;1.80;0.80;;;;;;;-128.00;-1.00;-1.00;97875;295;1003574;-34
2023/05/10 09:37:02;;;;;;;2.70;0.90;;;;;;;-128.00;-1.00;-1.00;97844;295;1002870;-32
2023/05/10 09:39:32;;;;;;;2.60;1.30;;;;;;;-128.00;-1.00;-1.00;97790;294;1002882;-31
2023/05/10 09:42:00;;;;;;;2.90;1.50;;;;;;;-128.00;-1.00;-1.00;97881;291;1004276;-34
2023/05/10 09:44:29;;;;;;;1.50;1.00;;;;;;;-128.00;-1.00;-1.00;97993;294;1004091;-33
2023/05/10 09:46:55;;;;;;;4.40;1.40;;;;;;;-128.00;-1.00;-1.00;97829;295;1003364;-31
2023/05/10 09:49:21;;;;;;;1.30;1.00;;;;;;;-128.00;-1.00;-1.00;97836;294;1003039;-34
2023/05/10 09:51:47;;;;;;;2.40;1.20;;;;;;;-128.00;-1.00;-1.00;97896;294;1003063;-34
2023/05/10 09:54:15;;;;;;;1.70;1.00;;;;;;;-128.00;-1.00;-1.00;97922;294;1002852;-34
2023/05/10 09:56:40;;;;;;;1.60;1.00;;;;;;;-128.00;-1.00;-1.00;98073;294;1003426;-31
2023/05/10 09:59:07;;;;;;;2.60;1.00;;;;;;;-128.00;-1.00;-1.00;98020;283;1003149;-33
2023/05/10 10:01:34;;;;;;;1.60;1.20;;;;;;;-128.00;-1.00;-1.00;97746;283;1002978;-30
2023/05/10 10:04:03;;;;;;;8.60;1.40;;;;;;;-128.00;-1.00;-1.00;97938;294;1003050;-34
2023/05/10 10:06:29;;;;;;;7.00;1.00;;;;;;;-128.00;-1.00;-1.00;97912;285;1002784;-34
2023/05/10 10:08:55;;;;;;;1.50;1.10;;;;;;;-128.00;-1.00;-1.00;97933;294;1003724;-38
2023/05/10 10:11:21;;;;;;;1.60;0.90;;;;;;;-128.00;-1.00;-1.00;97939;294;1003226;-31
2023/05/10 10:13:47;;;;;;;1.30;0.80;;;;;;;-128.00;-1.00;-1.00;97974;294;1003904;-35
2023/05/10 10:16:13;;;;;;;8.70;0.90;;;;;;;-128.00;-1.00;-1.00;97820;284;1003116;-34
2023/05/10 10:18:39;;;;;;;2.40;1.10;;;;;;;-128.00;-1.00;-1.00;97836;294;1002769;-36
2023/05/10 10:21:08;;;;;;;9.40;1.00;;;;;;;-128.00;-1.00;-1.00;97830;294;1004162;-35
2023/05/10 10:23:34;;;;;;;4.00;1.30;;;;;;;-128.00;-1.00;-1.00;98001;295;1003308;-30
2023/05/10 10:26:04;;;;;;;2.30;1.30;;;;;;;-128.00;-1.00;-1.00;97906;284;1002820;-34
2023/05/10 10:28:41;;;;;;;3.90;1.30;;;;;;;-128.00;-1.00;-1.00;97816;294;1004086;-32
2023/05/10 10:31:21;;;;;;;1.70;0.90;;;;;;;-128.00;-1.00;-1.00;97826;296;1003252;-35
2023/05/10 10:33:59;;;;;;;3.40;1.20;;;;;;;-128.00;-1.00;-1.00;97839;294;1003612;-35
2023/05/10 10:36:26;;;;;;;2.80;0.70;;;;;;;-128.00;-1.00;-1.00;97883;296;1003924;-30
2023/05/10 10:39:00;;;;;;;1.00;0.80;;;;;;;-128.00;-1.00;-1.00;97787;294;1004069;-30
2023/05/10 10:41:40;;;;;;;2.20;1.00;;;;;;;-128.00;-1.00;-1.00;97942;294;1003227;-35
2023/05/10 10:44:37;;;;;;;1.40;1.00;;;;;;;-128.00;-1.00;-1.00;97804;294;1003650;-31
2023/05/10 10:47:28;;;;;;;1.90;1.20;;;;;;;-128.00;-1.00;-1.00;97837;294;1003241;-34
2023/05/10 10:50:05;;;;;;;2.40;1.20;;;;;;;-128.00;-1.00;-1.00;97948;295;1005289;-35
2023/05/10 10:52:49;;;;;;;2.80;1.10;;;;;;;-128.00;-1.00;-1.00;97907;294;1003431;-30
2023/05/10 10:55:19;;;;;;;2.50;0.90;;;;;;;-128.00;-1.00;-1.00;97827;295;1003022;-35
2023/05/10 10:57:48;;;;;;;1.00;0.80;;;;;;;-128.00;-1.00;-1.00;97873;294;1003219;-34
2023/05/10 11:00:30;;;;;;;3.30;0.80;;;;;;;-128.00;-1.00;-1.00;97991;294;1004680;-31
2023/05/10 11:04:41;;;;;;;1.60;1.50;;;;;;;;;;100862;288;543392;-33
2023/05/10 11:48:08;;;;;;;2.00;0.80;;;;;;;-97.68;5.10;19871.23;96782;296;1546881;-31
2023/05/10 11:50:33;;;;;;;1.60;1.10;;;;;;;-128.00;-1.00;-1.00;96740;297;1003031;-31
2023/05/10 11:52:59;;;;;;;1.80;1.20;;;;;;;-128.00;-1.00;-1.00;97854;296;1004446;-31
2023/05/10 11:55:25;;;;;;;1.40;1.00;;;;;;;-128.00;-1.00;-1.00;96929;296;1005750;-35
2023/05/10 11:57:54;;;;;;;1.40;0.90;;;;;;;-128.00;-1.00;-1.00;97740;296;1005728;-36
2023/05/10 12:00:20;;;;;;;1.60;0.90;;;;;;;-128.00;-1.00;-1.00;97019;296;1005692;-35
2023/05/10 12:02:46;;;;;;;2.30;1.00;;;;;;;-128.00;-1.00;-1.00;97705;296;1005817;-35
2023/05/10 12:05:12;;;;;;;2.70;1.40;;;;;;;-128.00;-1.00;-1.00;97637;296;1005373;-35
2023/05/10 12:07:38;;;;;;;1.40;0.80;;;;;;;-128.00;-1.00;-1.00;97951;296;1004057;-31
2023/05/10 12:10:09;;;;;;;2.60;1.00;;;;;;;-128.00;-1.00;-1.00;97279;296;1003698;-35
2023/05/10 12:12:39;;;;;;;9.50;0.90;;;;;;;-128.00;-1.00;-1.00;97828;296;1003026;-32
2023/05/10 12:15:06;;;;;;;7.50;1.00;;;;;;;-128.00;-1.00;-1.00;97939;296;1002811;-32
2023/05/10 12:17:32;;;;;;;2.10;1.10;;;;;;;-128.00;-1.00;-1.00;97732;296;1003042;-35
2023/05/10 12:20:12;;;;;;;0.70;0.60;;;;;;;-128.00;-1.00;-1.00;96882;297;1004509;-32
2023/05/10 12:22:38;;;;;;;1.60;1.10;;;;;;;-128.00;-1.00;-1.00;97038;296;1005399;-32
2023/05/10 12:25:05;;;;;;;1.00;0.70;;;;;;;-128.00;-1.00;-1.00;95796;296;1006255;-36
2023/05/10 12:27:34;;;;;;;1.20;0.80;;;;;;;-128.00;-1.00;-1.00;96283;296;1005770;-36
2023/05/10 12:30:02;;;;;;;4.50;1.80;;;;;;;-128.00;-1.00;-1.00;97903;296;1003876;-36
2023/05/10 12:32:41;;;;;;;30.00;1.30;;;;;;;-128.00;-1.00;-1.00;97832;296;1003058;-31
2023/05/10 12:35:07;;;;;;;2.30;1.00;;;;;;;-128.00;-1.00;-1.00;97817;296;1004419;-30
2023/05/10 12:37:38;;;;;;;1.10;0.60;;;;;;;-128.00;-1.00;-1.00;97749;297;1002867;-31
2023/05/10 12:40:10;;;;;;;2.30;1.10;;;;;;;-128.00;-1.00;-1.00;97822;297;1003728;-32
2023/05/10 12:42:36;;;;;;;1.60;0.70;;;;;;;-128.00;-1.00;-1.00;97950;296;1003476;-35
2023/05/10 12:45:03;;;;;;;3.90;1.30;;;;;;;-128.00;-1.00;-1.00;97924;296;1002992;-31
2023/05/10 12:47:30;;;;;;;1.50;0.90;;;;;;;-128.00;-1.00;-1.00;97859;296;1003686;-35
2023/05/10 12:49:55;;;;;;;3.70;1.60;;;;;;;-128.00;-1.00;-1.00;98033;296;1003182;-32
2023/05/10 12:52:21;;;;;;;1.20;1.10;;;;;;;-128.00;-1.00;-1.00;97914;285;1003164;-35
2023/05/10 12:54:46;;;;;;;1.20;1.10;;;;;;;-128.00;-1.00;-1.00;97802;296;1003354;-35